createdAt,value
2023-01-22T00:01:09.298Z,4.32
2023-01-22T00:03:40.467Z,3.78
2023-01-22T00:06:08.598Z,3.95
2023-01-22T00:08:36.272Z,4.15
2023-01-22T00:11:04.460Z,3.15
2023-01-22T00:13:31.829Z,3.45
2023-01-22T00:16:00.186Z,4.10
2023-01-22T00:18:27.732Z,4.15
2023-01-22T00:20:55.990Z,4.07
2023-01-22T00:23:23.581Z,3.78
2023-01-22T00:25:51.134Z,3.50
2023-01-22T00:28:18.495Z,3.97
2023-01-22T00:30:45.740Z,3.97
2023-01-22T00:33:13.095Z,3.38
2023-01-22T00:35:40.464Z,3.40
2023-01-22T00:38:07.863Z,3.88
2023-01-22T00:40:35.572Z,3.55
2023-01-22T00:43:02.925Z,3.40
2023-01-22T00:45:30.897Z,3.35
2023-01-22T00:47:58.501Z,3.70
2023-01-22T00:50:25.915Z,3.42
2023-01-22T00:52:53.378Z,3.60
2023-01-22T00:55:20.801Z,3.60
2023-01-22T00:57:48.038Z,4.18
2023-01-22T01:00:18.634Z,3.75
2023-01-22T01:03:04.462Z,3.50
2023-01-22T01:05:32.438Z,3.47
2023-01-22T01:08:03.419Z,3.70
2023-01-22T01:10:30.909Z,4.32
2023-01-22T01:12:58.255Z,4.18
2023-01-22T01:15:26.141Z,3.80
2023-01-22T01:17:53.503Z,3.78
2023-01-22T01:20:20.930Z,4.20
2023-01-22T01:22:49.657Z,4.35
2023-01-22T01:25:16.979Z,4.25
2023-01-22T01:27:45.425Z,4.57
2023-01-22T01:30:16.260Z,4.75
2023-01-22T01:32:44.010Z,4.25
2023-01-22T01:35:11.385Z,4.15
2023-01-22T01:37:40.498Z,4.18
2023-01-22T01:40:08.974Z,4.28
2023-01-22T01:42:38.370Z,5.38
2023-01-22T01:45:25.068Z,4.43
2023-01-22T01:48:15.195Z,4.30
2023-01-22T01:50:44.581Z,3.67
2023-01-22T01:53:11.902Z,3.90
2023-01-22T01:55:41.297Z,4.05
2023-01-22T01:58:13.223Z,4.32
2023-01-22T02:00:42.574Z,3.70
2023-01-22T02:03:10.467Z,3.53
2023-01-22T02:05:39.521Z,4.63
2023-01-22T02:08:08.873Z,3.70
2023-01-22T02:10:37.316Z,4.32
2023-01-22T02:13:09.269Z,4.85
2023-01-22T02:15:37.284Z,3.80
2023-01-22T02:18:04.726Z,4.40
2023-01-22T02:20:39.682Z,4.47
2023-01-22T02:23:07.523Z,4.03
2023-01-22T02:25:34.821Z,4.05
2023-01-22T02:28:02.242Z,4.43
2023-01-22T02:30:29.611Z,4.40
2023-01-22T02:32:57.040Z,5.40
2023-01-22T02:35:25.840Z,5.03
2023-01-22T02:37:53.258Z,4.38
2023-01-22T02:40:20.749Z,4.72
2023-01-22T02:42:48.057Z,5.45
2023-01-22T02:45:15.267Z,5.28
2023-01-22T02:47:42.826Z,4.57
2023-01-22T02:50:10.776Z,5.97
2023-01-22T02:52:38.137Z,5.50
2023-01-22T02:55:05.716Z,5.28
2023-01-22T02:57:32.924Z,5.38
2023-01-22T03:00:00.986Z,5.47
2023-01-22T03:02:28.821Z,4.82
2023-01-22T03:05:03.526Z,5.10
2023-01-22T03:07:42.207Z,5.15
2023-01-22T03:10:18.494Z,5.65
2023-01-22T03:13:05.024Z,5.40
2023-01-22T03:15:51.560Z,4.85
2023-01-22T03:18:37.547Z,5.30
2023-01-22T03:21:16.993Z,5.68
2023-01-22T03:23:45.929Z,5.85
2023-01-22T03:26:16.940Z,6.05
2023-01-22T03:28:46.147Z,5.55
2023-01-22T03:31:14.237Z,5.40
2023-01-22T03:33:42.112Z,4.40
2023-01-22T03:36:10.653Z,4.78
2023-01-22T03:38:38.077Z,5.10
2023-01-22T03:41:06.217Z,4.90
2023-01-22T03:43:34.880Z,5.18
2023-01-22T03:46:03.015Z,5.20
2023-01-22T03:48:30.616Z,5.72
2023-01-22T03:50:57.981Z,5.47
2023-01-22T03:53:25.309Z,5.97
2023-01-22T03:55:59.623Z,5.20
2023-01-22T03:58:27.322Z,5.82
2023-01-22T04:00:57.884Z,5.82
2023-01-22T04:03:26.385Z,5.75
2023-01-22T04:05:54.001Z,5.40
2023-01-22T04:08:21.669Z,5.35
2023-01-22T04:10:49.195Z,5.40
2023-01-22T04:13:16.566Z,5.22
2023-01-22T04:15:45.360Z,4.88
2023-01-22T04:18:13.255Z,5.38
2023-01-22T04:20:40.668Z,4.80
2023-01-22T04:23:08.360Z,5.50
2023-01-22T04:25:36.400Z,5.43
2023-01-22T04:28:03.816Z,5.88
2023-01-22T04:30:31.440Z,6.60
2023-01-22T04:32:58.784Z,6.43
2023-01-22T04:35:26.121Z,5.95
2023-01-22T04:37:56.116Z,6.53
2023-01-22T04:40:23.566Z,6.47
2023-01-22T04:42:51.284Z,7.15
2023-01-22T04:45:18.787Z,6.70
2023-01-22T04:47:47.359Z,7.13
2023-01-22T04:50:25.615Z,6.38
2023-01-22T04:52:54.303Z,6.75
2023-01-22T04:55:22.193Z,5.50
2023-01-22T04:57:49.675Z,6.03
2023-01-22T05:00:17.545Z,6.65
2023-01-22T05:02:45.134Z,6.53
2023-01-22T05:05:15.914Z,6.13
2023-01-22T05:07:43.524Z,5.45
2023-01-22T05:10:11.137Z,5.30
2023-01-22T05:12:38.425Z,5.72
2023-01-22T05:15:15.098Z,5.82
2023-01-22T05:17:50.156Z,5.53
2023-01-22T05:20:18.169Z,6.22
2023-01-22T05:22:45.790Z,5.55
2023-01-22T05:25:13.743Z,5.68
2023-01-22T05:27:41.114Z,5.63
2023-01-22T05:32:49.861Z,5.68
2023-01-22T05:35:17.291Z,5.22
2023-01-22T05:37:45.156Z,5.38
2023-01-22T05:40:12.818Z,4.70
2023-01-22T05:42:40.193Z,4.93
2023-01-22T05:45:07.723Z,5.32
2023-01-22T05:47:35.089Z,5.35
2023-01-22T05:50:02.456Z,4.95
2023-01-22T05:52:29.741Z,5.00
2023-01-22T05:54:59.117Z,5.93
2023-01-22T05:57:27.976Z,4.97
2023-01-22T05:59:55.400Z,5.50
2023-01-22T06:02:22.953Z,4.88
2023-01-22T06:04:50.254Z,5.10
2023-01-22T06:07:17.587Z,5.10
2023-01-22T06:09:44.871Z,5.00
2023-01-22T06:12:12.538Z,5.38
2023-01-22T06:14:39.862Z,6.00
2023-01-22T06:17:07.216Z,5.80
2023-01-22T06:19:34.549Z,5.60
2023-01-22T06:22:01.983Z,5.30
2023-01-22T06:24:29.147Z,5.40
2023-01-22T06:26:56.545Z,5.22
2023-01-22T06:29:23.836Z,5.32
2023-01-22T06:31:51.028Z,5.40
2023-01-22T06:34:18.427Z,5.70
2023-01-22T06:36:45.581Z,5.88
2023-01-22T06:39:12.924Z,6.07
2023-01-22T06:41:42.276Z,5.78
2023-01-22T06:44:09.744Z,5.78
2023-01-22T06:46:37.166Z,6.32
2023-01-22T06:49:04.922Z,5.75
2023-01-22T06:51:32.602Z,5.93
2023-01-22T06:54:00.191Z,6.07
2023-01-22T06:56:28.225Z,5.90
2023-01-22T06:58:55.650Z,5.63
2023-01-22T07:01:23.169Z,5.50
2023-01-22T07:03:50.563Z,6.20
2023-01-22T07:06:19.077Z,5.50
2023-01-22T07:08:46.397Z,6.28
2023-01-22T07:11:15.427Z,7.68
2023-01-22T07:13:43.336Z,21.48
2023-01-22T07:16:11.150Z,12.63
2023-01-22T07:18:38.384Z,6.85
2023-01-22T07:21:06.529Z,8.27
2023-01-22T07:23:33.969Z,10.07
2023-01-22T07:26:01.188Z,8.98
2023-01-22T07:28:28.588Z,7.65
2023-01-22T07:30:57.119Z,6.97
2023-01-22T07:33:24.622Z,6.70
2023-01-22T07:35:56.709Z,6.60
2023-01-22T07:38:24.724Z,10.52
2023-01-22T07:40:52.063Z,6.00
2023-01-22T07:43:19.183Z,10.30
2023-01-22T07:45:46.513Z,17.48
2023-01-22T07:48:14.130Z,8.07
2023-01-22T07:50:41.332Z,5.70
2023-01-22T07:53:11.753Z,6.10
2023-01-22T07:55:39.384Z,7.10
2023-01-22T07:58:07.983Z,4.80
2023-01-22T08:00:35.953Z,7.75
2023-01-22T08:03:07.038Z,5.28
2023-01-22T08:05:34.430Z,5.40
2023-01-22T08:08:01.806Z,4.90
2023-01-22T08:10:29.082Z,5.55
2023-01-22T08:12:56.398Z,7.57
2023-01-22T08:15:23.826Z,7.72
2023-01-22T08:17:51.388Z,5.50
2023-01-22T08:20:19.309Z,6.15
2023-01-22T08:22:47.138Z,6.15
2023-01-22T08:25:14.674Z,5.78
2023-01-22T08:27:41.921Z,5.65
2023-01-22T08:30:11.432Z,7.85
2023-01-22T08:32:41.495Z,23.05
2023-01-22T08:35:09.264Z,10.60
2023-01-22T08:37:36.745Z,12.30
2023-01-22T08:40:04.857Z,40.42
2023-01-22T08:42:35.153Z,12.68
2023-01-22T08:45:02.478Z,5.93
2023-01-22T08:47:29.612Z,9.90
2023-01-22T08:49:57.521Z,6.85
2023-01-22T08:52:24.795Z,6.43
2023-01-22T08:54:52.055Z,10.93
2023-01-22T08:57:19.214Z,9.35
2023-01-22T08:59:59.730Z,8.43
2023-01-22T09:02:28.244Z,6.65
2023-01-22T09:04:55.651Z,7.18
2023-01-22T09:07:23.018Z,6.15
2023-01-22T09:09:50.435Z,8.13
2023-01-22T09:12:17.849Z,6.35
2023-01-22T09:14:45.208Z,6.63
2023-01-22T09:17:12.335Z,8.10
2023-01-22T09:19:39.672Z,6.50
2023-01-22T09:22:07.592Z,7.95
2023-01-22T09:24:34.927Z,5.30
2023-01-22T09:27:02.393Z,5.88
2023-01-22T09:29:29.762Z,7.32
2023-01-22T09:31:57.300Z,6.57
2023-01-22T09:34:24.477Z,7.28
2023-01-22T09:36:51.797Z,8.25
2023-01-22T09:39:19.104Z,6.68
2023-01-22T09:41:56.507Z,5.57
2023-01-22T09:44:28.849Z,6.35
2023-01-22T09:47:00.771Z,6.25
2023-01-22T09:49:39.073Z,6.88
2023-01-22T09:52:06.375Z,20.10
2023-01-22T09:54:33.809Z,8.73
2023-01-22T09:57:03.611Z,11.55
2023-01-22T09:59:38.651Z,7.25
2023-01-22T10:02:21.420Z,9.75
2023-01-22T10:04:50.913Z,7.93
2023-01-22T10:07:20.432Z,7.68
2023-01-22T10:10:03.201Z,7.18
2023-01-22T10:12:30.603Z,16.50
2023-01-22T10:14:57.966Z,14.57
2023-01-22T10:17:31.486Z,7.07
2023-01-22T10:20:02.314Z,7.15
2023-01-22T10:22:29.511Z,7.63
2023-01-22T10:24:58.454Z,5.88
2023-01-22T10:27:33.984Z,12.60
2023-01-22T10:30:09.356Z,8.73
2023-01-22T10:32:36.564Z,6.53
2023-01-22T10:35:12.893Z,10.48
2023-01-22T10:37:51.024Z,8.30
2023-01-22T10:40:21.379Z,12.55
2023-01-22T10:42:49.508Z,12.25
2023-01-22T10:45:17.106Z,12.15
2023-01-22T10:47:44.277Z,6.72
2023-01-22T10:50:14.573Z,7.55
2023-01-22T10:52:54.870Z,6.90
2023-01-22T10:55:23.552Z,7.40
2023-01-22T10:57:55.159Z,13.63
2023-01-22T11:00:52.324Z,10.57
2023-01-22T11:03:32.336Z,7.85
2023-01-22T11:06:02.288Z,8.93
2023-01-22T11:08:31.021Z,10.55
2023-01-22T11:11:00.387Z,9.35
2023-01-22T11:13:46.292Z,7.53
2023-01-22T11:16:13.546Z,7.78
2023-01-22T11:18:43.279Z,5.88
2023-01-22T11:21:17.575Z,6.75
2023-01-22T11:23:56.804Z,6.03
2023-01-22T11:26:36.253Z,6.55
2023-01-22T11:29:09.399Z,9.35
2023-01-22T11:31:54.997Z,6.75
2023-01-22T11:34:28.001Z,6.53
2023-01-22T11:36:55.100Z,6.40
2023-01-22T11:39:40.829Z,6.55
2023-01-22T11:42:23.040Z,6.22
2023-01-22T11:45:01.007Z,5.95
2023-01-22T11:47:55.891Z,14.73
2023-01-22T11:50:26.152Z,6.00
2023-01-22T11:53:03.936Z,5.95
2023-01-22T11:55:31.049Z,6.32
2023-01-22T11:58:07.313Z,7.45
2023-01-22T12:00:42.574Z,6.90
2023-01-22T12:03:12.458Z,6.80
2023-01-22T12:05:46.828Z,7.85
2023-01-22T12:08:37.357Z,7.53
2023-01-22T12:11:14.426Z,7.60
2023-01-22T12:14:00.153Z,14.80
2023-01-22T12:16:35.982Z,13.40
2023-01-22T12:19:03.128Z,10.43
2023-01-22T12:21:48.930Z,13.07
2023-01-22T12:24:21.132Z,10.18
2023-01-22T12:26:52.204Z,8.63
2023-01-22T12:29:22.566Z,8.00
2023-01-22T12:31:49.724Z,11.23
2023-01-22T12:34:23.147Z,8.70
2023-01-22T12:39:26.362Z,8.18
2023-01-22T12:42:01.087Z,7.15
2023-01-22T12:44:31.706Z,6.88
2023-01-22T12:47:09.297Z,8.00
2023-01-22T12:49:45.864Z,10.48
2023-01-22T12:52:31.989Z,12.68
2023-01-22T12:54:59.774Z,8.68
2023-01-22T12:57:28.673Z,8.23
2023-01-22T12:59:57.673Z,6.82
2023-01-22T13:02:35.489Z,52.83
2023-01-22T13:05:13.624Z,12.70
2023-01-22T13:07:41.240Z,18.08
2023-01-22T13:10:21.284Z,19.88
2023-01-22T13:12:50.611Z,13.73
2023-01-22T13:15:19.133Z,12.20
2023-01-22T13:17:58.498Z,8.32
2023-01-22T13:20:35.757Z,8.93
2023-01-22T13:23:03.704Z,9.10
2023-01-22T13:25:32.226Z,8.88
2023-01-22T13:27:59.962Z,9.70
2023-01-22T13:30:28.366Z,10.77
2023-01-22T13:33:15.241Z,10.55
2023-01-22T13:35:43.561Z,11.25
2023-01-22T13:38:21.320Z,9.57
2023-01-22T13:40:56.181Z,10.38
2023-01-22T13:43:24.189Z,11.10
2023-01-22T13:45:52.766Z,10.80
2023-01-22T13:48:21.908Z,10.95
2023-01-22T13:50:54.928Z,11.48
2023-01-22T13:53:26.171Z,10.70
2023-01-22T13:55:53.713Z,13.25
2023-01-22T13:58:38.906Z,13.98
2023-01-22T14:01:10.954Z,10.55
2023-01-22T14:03:38.702Z,11.70
2023-01-22T14:06:07.391Z,12.25
2023-01-22T14:08:45.304Z,11.27
2023-01-22T14:11:12.416Z,11.95
2023-01-22T14:13:41.042Z,11.43
2023-01-22T14:16:08.803Z,10.63
2023-01-22T14:18:36.413Z,13.82
2023-01-22T14:21:03.898Z,14.70
2023-01-22T14:23:31.142Z,12.65
2023-01-22T14:25:58.946Z,13.63
2023-01-22T14:28:26.136Z,14.10
2023-01-22T14:30:53.432Z,12.70
2023-01-22T14:33:24.213Z,11.55
2023-01-22T14:35:52.175Z,12.70
2023-01-22T14:38:19.675Z,14.63
2023-01-22T14:40:46.892Z,13.48
2023-01-22T14:43:14.140Z,13.13
2023-01-22T14:45:41.854Z,13.20
2023-01-22T14:48:12.253Z,13.73
2023-01-22T14:50:40.006Z,13.57
2023-01-22T14:53:07.684Z,13.27
2023-01-22T14:55:34.862Z,14.60
2023-01-22T14:58:02.477Z,15.00
2023-01-22T15:00:32.309Z,14.77
2023-01-22T15:03:00.292Z,12.63
2023-01-22T15:05:27.948Z,13.45
2023-01-22T15:07:55.710Z,15.25
2023-01-22T15:10:23.434Z,14.05
2023-01-22T15:12:51.642Z,14.95
2023-01-22T15:15:23.189Z,13.70
2023-01-22T15:17:51.662Z,13.77
2023-01-22T15:20:19.890Z,14.27
2023-01-22T15:22:47.517Z,13.63
2023-01-22T15:25:14.638Z,13.88
2023-01-22T15:27:42.198Z,13.20
2023-01-22T15:30:09.681Z,14.02
2023-01-22T15:32:36.901Z,13.35
2023-01-22T15:35:04.328Z,13.52
2023-01-22T15:37:31.526Z,13.90
2023-01-22T15:39:58.678Z,13.35
2023-01-22T15:42:25.889Z,12.77
2023-01-22T15:44:53.003Z,15.90
2023-01-22T15:47:20.179Z,14.05
2023-01-22T15:49:47.333Z,29.42
2023-01-22T15:52:14.452Z,19.23
2023-01-22T15:54:41.658Z,18.40
2023-01-22T15:57:08.804Z,16.95
2023-01-22T15:59:38.823Z,13.40
2023-01-22T16:02:05.999Z,13.45
2023-01-22T16:04:33.176Z,12.85
2023-01-22T16:07:00.344Z,13.82
2023-01-22T16:09:27.512Z,32.55
2023-01-22T16:11:54.736Z,36.78
2023-01-22T16:14:21.868Z,20.25
2023-01-22T16:16:49.153Z,17.50
2023-01-22T16:19:16.393Z,31.45
2023-01-22T16:21:45.059Z,24.02
2023-01-22T16:24:12.201Z,16.70
2023-01-22T16:26:39.358Z,18.90
2023-01-22T16:29:06.667Z,26.60
2023-01-22T16:31:35.141Z,18.98
2023-01-22T16:34:07.666Z,21.27
2023-01-22T16:36:34.774Z,49.50
2023-01-22T16:39:01.965Z,41.53
2023-01-22T16:41:30.329Z,26.10
2023-01-22T16:43:59.335Z,23.65
2023-01-22T16:46:27.914Z,37.13
2023-01-22T16:48:59.740Z,26.92
2023-01-22T16:51:27.912Z,18.95
2023-01-22T16:53:55.542Z,15.55
2023-01-22T16:56:22.732Z,17.83
2023-01-22T16:58:49.933Z,17.42
2023-01-22T17:01:17.240Z,17.58
2023-01-22T17:03:44.543Z,17.77
2023-01-22T17:06:19.890Z,19.13
2023-01-22T17:08:47.053Z,20.02
2023-01-22T17:11:17.770Z,17.88
2023-01-22T17:13:44.948Z,18.52
2023-01-22T17:16:12.586Z,19.98
2023-01-22T17:18:39.969Z,18.27
2023-01-22T17:21:08.054Z,18.13
2023-01-22T17:23:37.005Z,19.88
2023-01-22T17:26:08.138Z,19.17
2023-01-22T17:28:39.979Z,20.45
2023-01-22T17:31:11.979Z,21.20
2023-01-22T17:33:39.352Z,34.17
2023-01-22T17:36:07.258Z,36.97
2023-01-22T17:38:38.376Z,55.35
2023-01-22T17:41:07.629Z,48.25
2023-01-22T17:43:35.467Z,65.30
2023-01-22T17:46:03.045Z,37.65
2023-01-22T17:48:33.048Z,33.70
2023-01-22T17:51:04.228Z,30.83
2023-01-22T17:53:31.457Z,25.27
2023-01-22T17:56:12.606Z,28.63
2023-01-22T17:58:42.133Z,24.35
2023-01-22T18:01:10.169Z,22.08
2023-01-22T18:03:37.678Z,25.38
2023-01-22T18:06:05.226Z,21.25
2023-01-22T18:08:33.129Z,22.13
2023-01-22T18:11:00.456Z,23.90
2023-01-22T18:13:28.490Z,26.30
2023-01-22T18:15:55.644Z,25.90
2023-01-22T18:18:22.945Z,27.45
2023-01-22T18:20:50.183Z,23.58
2023-01-22T18:23:17.465Z,21.35
2023-01-22T18:25:47.319Z,23.38
2023-01-22T18:28:15.117Z,23.20
2023-01-22T18:30:42.379Z,22.67
2023-01-22T18:33:10.573Z,20.67
2023-01-22T18:35:38.172Z,21.67
2023-01-22T18:38:05.851Z,23.25
2023-01-22T18:40:32.999Z,21.85
2023-01-22T18:43:00.290Z,21.17
2023-01-22T18:45:27.447Z,20.77
2023-01-22T18:47:55.140Z,21.35
2023-01-22T18:50:22.581Z,21.08
2023-01-22T18:52:49.841Z,21.60
2023-01-22T18:55:17.637Z,18.10
2023-01-22T18:57:47.348Z,18.98
2023-01-22T19:00:15.540Z,22.13
2023-01-22T19:02:43.217Z,20.80
2023-01-22T19:05:10.891Z,20.63
2023-01-22T19:07:38.201Z,23.42
2023-01-22T19:10:08.776Z,23.13
2023-01-22T19:12:35.950Z,26.15
2023-01-22T19:15:03.123Z,28.80
2023-01-22T19:17:30.323Z,25.05
2023-01-22T19:19:57.455Z,20.98
2023-01-22T19:22:24.742Z,20.88
2023-01-22T19:24:51.936Z,22.13
2023-01-22T19:27:19.263Z,24.02
2023-01-22T19:29:46.976Z,21.13
2023-01-22T19:32:16.462Z,20.55
2023-01-22T19:34:43.915Z,19.08
2023-01-22T19:37:11.096Z,19.85
2023-01-22T19:39:40.325Z,18.73
2023-01-22T19:42:08.755Z,19.30
2023-01-22T19:44:36.139Z,19.63
2023-01-22T19:47:03.371Z,19.73
2023-01-22T19:49:30.582Z,19.80
2023-01-22T19:51:57.886Z,18.77
2023-01-22T19:54:25.345Z,18.13
2023-01-22T19:56:52.816Z,17.42
2023-01-22T19:59:21.401Z,18.85
2023-01-22T20:01:49.355Z,19.38
2023-01-22T20:04:23.923Z,18.90
2023-01-22T20:06:52.066Z,18.65
2023-01-22T20:09:21.692Z,18.13
2023-01-22T20:11:53.825Z,18.40
2023-01-22T20:14:26.139Z,17.15
2023-01-22T20:16:54.246Z,16.80
2023-01-22T20:19:21.387Z,18.00
2023-01-22T20:21:48.784Z,17.30
2023-01-22T20:24:16.610Z,16.50
2023-01-22T20:26:43.798Z,15.98
2023-01-22T20:29:12.682Z,16.75
2023-01-22T20:31:39.941Z,17.67
2023-01-22T20:34:07.306Z,19.27
2023-01-22T20:36:34.556Z,20.15
2023-01-22T20:39:02.194Z,22.42
2023-01-22T20:41:30.773Z,19.67
2023-01-22T20:43:58.545Z,17.05
2023-01-22T20:46:26.359Z,15.88
2023-01-22T20:48:53.971Z,16.20
2023-01-22T20:51:26.772Z,16.63
2023-01-22T20:53:54.864Z,16.98
2023-01-22T20:56:23.555Z,16.13
2023-01-22T20:58:55.805Z,16.23
2023-01-22T21:01:22.949Z,14.88
2023-01-22T21:03:50.176Z,15.60
2023-01-22T21:06:18.357Z,12.98
2023-01-22T21:08:48.722Z,14.95
2023-01-22T21:11:20.393Z,14.00
2023-01-22T21:13:48.613Z,13.50
2023-01-22T21:16:17.352Z,14.15
2023-01-22T21:18:46.212Z,15.70
2023-01-22T21:21:14.907Z,14.10
2023-01-22T21:23:43.328Z,14.80
2023-01-22T21:26:12.207Z,14.35
2023-01-22T21:28:39.952Z,15.80
2023-01-22T21:31:07.345Z,14.15
2023-01-22T21:33:34.733Z,14.05
2023-01-22T21:36:01.961Z,15.45
2023-01-22T21:38:29.473Z,18.15
2023-01-22T21:41:10.172Z,16.48
2023-01-22T21:43:56.190Z,14.50
2023-01-22T21:46:25.342Z,15.10
2023-01-22T21:49:01.215Z,14.65
2023-01-22T21:51:29.898Z,13.82
2023-01-22T21:53:57.682Z,14.88
2023-01-22T21:56:25.386Z,13.90
2023-01-22T21:58:52.516Z,14.00
2023-01-22T22:01:21.123Z,13.65
2023-01-22T22:03:48.333Z,13.38
2023-01-22T22:06:15.538Z,13.27
2023-01-22T22:08:43.661Z,12.10
2023-01-22T22:11:11.581Z,12.48
2023-01-22T22:13:38.963Z,12.80
2023-01-22T22:16:07.533Z,11.80
2023-01-22T22:18:35.849Z,11.52
2023-01-22T22:21:04.621Z,11.55
2023-01-22T22:23:32.196Z,11.43
2023-01-22T22:25:59.478Z,12.18
2023-01-22T22:28:26.964Z,11.90
2023-01-22T22:30:56.229Z,11.15
2023-01-22T22:33:23.436Z,11.38
2023-01-22T22:35:50.590Z,11.57
2023-01-22T22:38:17.705Z,11.10
2023-01-22T22:40:44.845Z,10.10
2023-01-22T22:43:12.194Z,10.13
2023-01-22T22:45:39.502Z,9.20
2023-01-22T22:48:07.714Z,9.55
2023-01-22T22:50:35.085Z,9.57
2023-01-22T22:53:02.407Z,9.30
2023-01-22T22:55:30.295Z,10.20
2023-01-22T22:57:59.506Z,9.10
2023-01-22T23:00:26.726Z,9.35
2023-01-22T23:02:53.948Z,9.60
2023-01-22T23:05:21.124Z,8.85
2023-01-22T23:07:48.269Z,8.77
2023-01-22T23:10:28.684Z,9.07
2023-01-22T23:12:57.396Z,9.05
2023-01-22T23:15:26.122Z,8.85
2023-01-22T23:17:53.950Z,9.30
2023-01-22T23:20:21.789Z,8.82
2023-01-22T23:22:51.094Z,9.15
2023-01-22T23:25:18.313Z,8.70
2023-01-22T23:27:45.615Z,8.52
2023-01-22T23:30:13.574Z,9.13
2023-01-22T23:32:40.964Z,8.48
2023-01-22T23:35:08.321Z,9.05
2023-01-22T23:37:35.712Z,9.63
2023-01-22T23:40:02.852Z,9.05
2023-01-22T23:42:30.059Z,10.27
2023-01-22T23:44:57.238Z,9.30
2023-01-22T23:47:27.266Z,9.40
2023-01-22T23:49:54.667Z,8.85
2023-01-22T23:52:21.954Z,10.05
2023-01-22T23:54:49.325Z,9.93
2023-01-22T23:57:16.748Z,10.63
2023-01-22T23:59:43.940Z,9.43
